sensor_id;sensor_type;location;lat;lon;timestamp;P1;durP1;ratioP1;P2;durP2;ratioP2
83115;SDS011;72996;40.206;44.498;2023-12-14T00:01:44;61.97;;;26.88;;
83115;SDS011;72996;40.206;44.498;2023-12-14T00:04:11;57.95;;;24.48;;
83115;SDS011;72996;40.206;44.498;2023-12-14T00:06:37;59.65;;;24.38;;
83115;SDS011;72996;40.206;44.498;2023-12-14T00:09:04;47.97;;;22.80;;
83115;SDS011;72996;40.206;44.498;2023-12-14T00:11:30;40.35;;;19.42;;
83115;SDS011;72996;40.206;44.498;2023-12-14T00:13:55;42.65;;;20.77;;
83115;SDS011;72996;40.206;44.498;2023-12-14T00:16:21;43.40;;;20.17;;
83115;SDS011;72996;40.206;44.498;2023-12-14T00:18:46;39.83;;;18.63;;
83115;SDS011;72996;40.206;44.498;2023-12-14T00:21:12;37.30;;;18.50;;
83115;SDS011;72996;40.206;44.498;2023-12-14T00:23:38;42.45;;;18.00;;
83115;SDS011;72996;40.206;44.498;2023-12-14T00:26:03;41.63;;;20.33;;
83115;SDS011;72996;40.206;44.498;2023-12-14T00:28:29;38.83;;;19.30;;
83115;SDS011;72996;40.206;44.498;2023-12-14T00:30:55;41.72;;;19.98;;
83115;SDS011;72996;40.206;44.498;2023-12-14T00:33:20;42.08;;;19.52;;
83115;SDS011;72996;40.206;44.498;2023-12-14T00:35:46;44.38;;;20.15;;
83115;SDS011;72996;40.206;44.498;2023-12-14T00:38:11;45.33;;;20.48;;
83115;SDS011;72996;40.206;44.498;2023-12-14T00:40:37;45.53;;;21.20;;
83115;SDS011;72996;40.206;44.498;2023-12-14T00:43:03;47.72;;;20.92;;
83115;SDS011;72996;40.206;44.498;2023-12-14T00:45:29;44.47;;;22.25;;
83115;SDS011;72996;40.206;44.498;2023-12-14T00:47:54;52.80;;;22.67;;
83115;SDS011;72996;40.206;44.498;2023-12-14T00:50:20;46.50;;;20.90;;
83115;SDS011;72996;40.206;44.498;2023-12-14T00:52:45;44.67;;;20.45;;
83115;SDS011;72996;40.206;44.498;2023-12-14T00:55:11;49.53;;;22.40;;
83115;SDS011;72996;40.206;44.498;2023-12-14T00:57:37;54.20;;;21.70;;
83115;SDS011;72996;40.206;44.498;2023-12-14T01:00:02;50.95;;;21.52;;
83115;SDS011;72996;40.206;44.498;2023-12-14T01:02:28;49.42;;;22.27;;
83115;SDS011;72996;40.206;44.498;2023-12-14T01:04:54;51.80;;;23.17;;
83115;SDS011;72996;40.206;44.498;2023-12-14T01:07:20;49.30;;;22.75;;
83115;SDS011;72996;40.206;44.498;2023-12-14T01:09:45;52.67;;;22.35;;
83115;SDS011;72996;40.206;44.498;2023-12-14T01:12:11;53.08;;;23.38;;
83115;SDS011;72996;40.206;44.498;2023-12-14T01:14:37;51.92;;;22.08;;
83115;SDS011;72996;40.206;44.498;2023-12-14T01:17:02;54.42;;;22.23;;
83115;SDS011;72996;40.206;44.498;2023-12-14T01:19:28;47.05;;;21.25;;
83115;SDS011;72996;40.206;44.498;2023-12-14T01:21:54;51.97;;;22.40;;
83115;SDS011;72996;40.206;44.498;2023-12-14T01:24:20;47.58;;;21.30;;
83115;SDS011;72996;40.206;44.498;2023-12-14T01:26:46;53.03;;;22.65;;
83115;SDS011;72996;40.206;44.498;2023-12-14T01:29:11;44.42;;;20.50;;
83115;SDS011;72996;40.206;44.498;2023-12-14T01:31:37;52.15;;;21.63;;
83115;SDS011;72996;40.206;44.498;2023-12-14T01:34:02;61.65;;;24.45;;
83115;SDS011;72996;40.206;44.498;2023-12-14T01:36:28;56.03;;;23.05;;
83115;SDS011;72996;40.206;44.498;2023-12-14T01:38:54;63.35;;;24.05;;
83115;SDS011;72996;40.206;44.498;2023-12-14T01:41:19;67.88;;;26.02;;
83115;SDS011;72996;40.206;44.498;2023-12-14T01:43:45;60.30;;;23.40;;
83115;SDS011;72996;40.206;44.498;2023-12-14T01:46:11;56.20;;;22.60;;
83115;SDS011;72996;40.206;44.498;2023-12-14T01:48:37;54.55;;;22.55;;
83115;SDS011;72996;40.206;44.498;2023-12-14T01:51:03;56.67;;;23.33;;
83115;SDS011;72996;40.206;44.498;2023-12-14T01:53:29;54.67;;;24.40;;
83115;SDS011;72996;40.206;44.498;2023-12-14T01:55:55;48.65;;;21.33;;
83115;SDS011;72996;40.206;44.498;2023-12-14T01:58:21;55.25;;;21.13;;
83115;SDS011;72996;40.206;44.498;2023-12-14T02:03:48;58.78;;;23.25;;
83115;SDS011;72996;40.206;44.498;2023-12-14T02:06:15;52.60;;;22.23;;
83115;SDS011;72996;40.206;44.498;2023-12-14T02:08:41;51.58;;;21.83;;
83115;SDS011;72996;40.206;44.498;2023-12-14T02:11:07;56.67;;;23.08;;
83115;SDS011;72996;40.206;44.498;2023-12-14T02:13:33;52.25;;;20.40;;
83115;SDS011;72996;40.206;44.498;2023-12-14T02:15:59;49.33;;;21.55;;
83115;SDS011;72996;40.206;44.498;2023-12-14T02:18:24;51.20;;;20.13;;
83115;SDS011;72996;40.206;44.498;2023-12-14T02:20:50;52.90;;;21.13;;
83115;SDS011;72996;40.206;44.498;2023-12-14T02:23:16;54.65;;;20.73;;
83115;SDS011;72996;40.206;44.498;2023-12-14T02:25:41;55.67;;;20.85;;
83115;SDS011;72996;40.206;44.498;2023-12-14T02:28:07;56.30;;;21.52;;
83115;SDS011;72996;40.206;44.498;2023-12-14T02:30:32;51.17;;;20.77;;
83115;SDS011;72996;40.206;44.498;2023-12-14T02:32:58;45.97;;;18.98;;
83115;SDS011;72996;40.206;44.498;2023-12-14T02:35:24;52.35;;;18.58;;
83115;SDS011;72996;40.206;44.498;2023-12-14T02:37:49;50.17;;;19.23;;
83115;SDS011;72996;40.206;44.498;2023-12-14T02:40:15;49.42;;;18.60;;
83115;SDS011;72996;40.206;44.498;2023-12-14T02:42:40;45.08;;;18.55;;
83115;SDS011;72996;40.206;44.498;2023-12-14T02:45:07;44.95;;;16.73;;
83115;SDS011;72996;40.206;44.498;2023-12-14T02:47:33;52.33;;;18.75;;
83115;SDS011;72996;40.206;44.498;2023-12-14T02:49:59;43.53;;;18.65;;
83115;SDS011;72996;40.206;44.498;2023-12-14T02:52:25;45.72;;;17.83;;
83115;SDS011;72996;40.206;44.498;2023-12-14T02:54:51;49.83;;;19.08;;
83115;SDS011;72996;40.206;44.498;2023-12-14T02:57:16;50.13;;;18.77;;
83115;SDS011;72996;40.206;44.498;2023-12-14T02:59:42;49.10;;;19.05;;
83115;SDS011;72996;40.206;44.498;2023-12-14T03:02:07;48.35;;;19.08;;
83115;SDS011;72996;40.206;44.498;2023-12-14T03:04:34;44.80;;;18.13;;
83115;SDS011;72996;40.206;44.498;2023-12-14T03:07:00;35.38;;;16.55;;
83115;SDS011;72996;40.206;44.498;2023-12-14T03:09:28;39.25;;;16.50;;
83115;SDS011;72996;40.206;44.498;2023-12-14T03:11:54;37.65;;;17.23;;
83115;SDS011;72996;40.206;44.498;2023-12-14T03:14:20;37.80;;;16.25;;
83115;SDS011;72996;40.206;44.498;2023-12-14T03:16:45;38.10;;;17.00;;
83115;SDS011;72996;40.206;44.498;2023-12-14T03:19:11;38.10;;;15.70;;
83115;SDS011;72996;40.206;44.498;2023-12-14T03:21:37;41.90;;;16.50;;
83115;SDS011;72996;40.206;44.498;2023-12-14T03:24:02;39.00;;;17.23;;
83115;SDS011;72996;40.206;44.498;2023-12-14T03:26:28;42.53;;;16.17;;
83115;SDS011;72996;40.206;44.498;2023-12-14T03:28:54;41.65;;;18.15;;
83115;SDS011;72996;40.206;44.498;2023-12-14T03:31:19;38.50;;;16.83;;
83115;SDS011;72996;40.206;44.498;2023-12-14T03:33:45;38.83;;;17.92;;
83115;SDS011;72996;40.206;44.498;2023-12-14T03:36:11;40.35;;;17.20;;
83115;SDS011;72996;40.206;44.498;2023-12-14T03:38:36;37.60;;;16.35;;
83115;SDS011;72996;40.206;44.498;2023-12-14T03:41:02;38.88;;;19.17;;
83115;SDS011;72996;40.206;44.498;2023-12-14T03:43:28;40.75;;;18.27;;
83115;SDS011;72996;40.206;44.498;2023-12-14T03:45:53;37.25;;;17.38;;
83115;SDS011;72996;40.206;44.498;2023-12-14T03:48:19;35.45;;;16.23;;
83115;SDS011;72996;40.206;44.498;2023-12-14T03:50:44;38.58;;;16.23;;
83115;SDS011;72996;40.206;44.498;2023-12-14T03:53:10;38.92;;;17.05;;
83115;SDS011;72996;40.206;44.498;2023-12-14T03:55:36;38.13;;;16.73;;
83115;SDS011;72996;40.206;44.498;2023-12-14T03:58:01;35.38;;;14.65;;
83115;SDS011;72996;40.206;44.498;2023-12-14T04:00:27;32.08;;;14.90;;
83115;SDS011;72996;40.206;44.498;2023-12-14T04:02:52;31.77;;;14.43;;
83115;SDS011;72996;40.206;44.498;2023-12-14T04:05:18;34.20;;;16.17;;
83115;SDS011;72996;40.206;44.498;2023-12-14T04:07:44;38.25;;;16.05;;
83115;SDS011;72996;40.206;44.498;2023-12-14T04:10:10;34.92;;;16.95;;
83115;SDS011;72996;40.206;44.498;2023-12-14T04:12:37;38.45;;;17.70;;
83115;SDS011;72996;40.206;44.498;2023-12-14T04:15:06;38.65;;;17.63;;
83115;SDS011;72996;40.206;44.498;2023-12-14T04:17:35;40.05;;;18.30;;
83115;SDS011;72996;40.206;44.498;2023-12-14T04:20:01;40.50;;;18.00;;
83115;SDS011;72996;40.206;44.498;2023-12-14T04:22:28;38.92;;;17.80;;
83115;SDS011;72996;40.206;44.498;2023-12-14T04:24:54;50.30;;;20.35;;
83115;SDS011;72996;40.206;44.498;2023-12-14T04:27:20;53.00;;;21.00;;
83115;SDS011;72996;40.206;44.498;2023-12-14T04:29:45;55.63;;;22.83;;
83115;SDS011;72996;40.206;44.498;2023-12-14T04:32:11;60.72;;;25.08;;
83115;SDS011;72996;40.206;44.498;2023-12-14T04:34:37;56.33;;;23.00;;
83115;SDS011;72996;40.206;44.498;2023-12-14T04:37:03;62.28;;;24.40;;
83115;SDS011;72996;40.206;44.498;2023-12-14T04:39:29;66.43;;;25.13;;
83115;SDS011;72996;40.206;44.498;2023-12-14T04:41:55;52.47;;;22.27;;
83115;SDS011;72996;40.206;44.498;2023-12-14T04:44:21;47.42;;;21.25;;
83115;SDS011;72996;40.206;44.498;2023-12-14T04:46:47;62.03;;;24.67;;
83115;SDS011;72996;40.206;44.498;2023-12-14T04:49:13;40.92;;;18.55;;
83115;SDS011;72996;40.206;44.498;2023-12-14T04:51:39;47.80;;;21.00;;
83115;SDS011;72996;40.206;44.498;2023-12-14T04:54:05;40.10;;;16.30;;
83115;SDS011;72996;40.206;44.498;2023-12-14T04:56:30;32.53;;;14.73;;
83115;SDS011;72996;40.206;44.498;2023-12-14T04:58:56;29.65;;;14.60;;
83115;SDS011;72996;40.206;44.498;2023-12-14T05:01:22;35.03;;;14.57;;
83115;SDS011;72996;40.206;44.498;2023-12-14T05:03:47;34.05;;;15.57;;
83115;SDS011;72996;40.206;44.498;2023-12-14T05:06:13;39.47;;;17.45;;
83115;SDS011;72996;40.206;44.498;2023-12-14T05:08:39;38.13;;;17.08;;
83115;SDS011;72996;40.206;44.498;2023-12-14T05:11:04;43.75;;;17.67;;
83115;SDS011;72996;40.206;44.498;2023-12-14T05:13:30;35.38;;;15.90;;
83115;SDS011;72996;40.206;44.498;2023-12-14T05:15:56;34.97;;;15.10;;
83115;SDS011;72996;40.206;44.498;2023-12-14T05:18:26;30.23;;;14.70;;
83115;SDS011;72996;40.206;44.498;2023-12-14T05:20:52;36.28;;;17.00;;
83115;SDS011;72996;40.206;44.498;2023-12-14T05:23:18;30.17;;;14.32;;
83115;SDS011;72996;40.206;44.498;2023-12-14T05:25:44;35.92;;;15.45;;
83115;SDS011;72996;40.206;44.498;2023-12-14T05:28:10;33.55;;;14.07;;
83115;SDS011;72996;40.206;44.498;2023-12-14T05:30:35;34.17;;;16.15;;
83115;SDS011;72996;40.206;44.498;2023-12-14T05:33:01;33.78;;;15.32;;
83115;SDS011;72996;40.206;44.498;2023-12-14T05:35:27;65.32;;;32.75;;
83115;SDS011;72996;40.206;44.498;2023-12-14T05:37:52;53.40;;;26.52;;
83115;SDS011;72996;40.206;44.498;2023-12-14T05:40:18;39.60;;;19.17;;
83115;SDS011;72996;40.206;44.498;2023-12-14T05:42:44;44.42;;;19.60;;
83115;SDS011;72996;40.206;44.498;2023-12-14T05:45:10;41.05;;;17.83;;
83115;SDS011;72996;40.206;44.498;2023-12-14T05:47:35;38.28;;;16.70;;
83115;SDS011;72996;40.206;44.498;2023-12-14T05:50:02;36.45;;;17.00;;
83115;SDS011;72996;40.206;44.498;2023-12-14T05:52:28;33.20;;;15.05;;
83115;SDS011;72996;40.206;44.498;2023-12-14T05:54:54;34.17;;;15.45;;
83115;SDS011;72996;40.206;44.498;2023-12-14T05:57:20;39.45;;;19.13;;
83115;SDS011;72996;40.206;44.498;2023-12-14T05:59:45;39.55;;;18.80;;
83115;SDS011;72996;40.206;44.498;2023-12-14T06:02:11;36.08;;;16.60;;
83115;SDS011;72996;40.206;44.498;2023-12-14T06:04:37;39.30;;;17.63;;
83115;SDS011;72996;40.206;44.498;2023-12-14T06:07:03;36.63;;;17.98;;
83115;SDS011;72996;40.206;44.498;2023-12-14T06:09:29;37.33;;;16.23;;
83115;SDS011;72996;40.206;44.498;2023-12-14T06:12:02;37.47;;;17.45;;
83115;SDS011;72996;40.206;44.498;2023-12-14T06:14:28;35.67;;;15.80;;
83115;SDS011;72996;40.206;44.498;2023-12-14T06:16:54;35.63;;;16.25;;
83115;SDS011;72996;40.206;44.498;2023-12-14T06:19:20;35.65;;;15.57;;
83115;SDS011;72996;40.206;44.498;2023-12-14T06:21:46;37.10;;;17.13;;
83115;SDS011;72996;40.206;44.498;2023-12-14T06:24:12;38.42;;;18.02;;
83115;SDS011;72996;40.206;44.498;2023-12-14T06:26:41;41.35;;;19.38;;
83115;SDS011;72996;40.206;44.498;2023-12-14T06:29:10;45.13;;;20.10;;
83115;SDS011;72996;40.206;44.498;2023-12-14T06:31:40;43.35;;;20.15;;
83115;SDS011;72996;40.206;44.498;2023-12-14T06:34:05;40.15;;;18.70;;
83115;SDS011;72996;40.206;44.498;2023-12-14T06:36:31;45.65;;;20.15;;
83115;SDS011;72996;40.206;44.498;2023-12-14T06:38:58;37.03;;;17.63;;
83115;SDS011;72996;40.206;44.498;2023-12-14T06:41:24;42.67;;;19.33;;
83115;SDS011;72996;40.206;44.498;2023-12-14T06:43:51;42.38;;;19.02;;
83115;SDS011;72996;40.206;44.498;2023-12-14T06:46:17;42.85;;;19.55;;
83115;SDS011;72996;40.206;44.498;2023-12-14T06:48:43;50.83;;;18.45;;
83115;SDS011;72996;40.206;44.498;2023-12-14T06:51:09;43.25;;;19.67;;
83115;SDS011;72996;40.206;44.498;2023-12-14T06:53:35;41.63;;;21.20;;
83115;SDS011;72996;40.206;44.498;2023-12-14T06:56:02;46.58;;;19.50;;
83115;SDS011;72996;40.206;44.498;2023-12-14T06:58:29;40.70;;;19.42;;
83115;SDS011;72996;40.206;44.498;2023-12-14T07:00:54;41.92;;;19.88;;
83115;SDS011;72996;40.206;44.498;2023-12-14T07:03:20;47.88;;;21.10;;
83115;SDS011;72996;40.206;44.498;2023-12-14T07:05:46;44.47;;;19.10;;
83115;SDS011;72996;40.206;44.498;2023-12-14T07:08:11;45.50;;;21.40;;
83115;SDS011;72996;40.206;44.498;2023-12-14T07:10:37;42.08;;;20.00;;
83115;SDS011;72996;40.206;44.498;2023-12-14T07:13:03;45.25;;;20.75;;
83115;SDS011;72996;40.206;44.498;2023-12-14T07:15:29;41.65;;;18.40;;
83115;SDS011;72996;40.206;44.498;2023-12-14T07:17:54;50.17;;;20.60;;
83115;SDS011;72996;40.206;44.498;2023-12-14T07:20:20;45.20;;;21.83;;
83115;SDS011;72996;40.206;44.498;2023-12-14T07:22:46;58.78;;;25.02;;
83115;SDS011;72996;40.206;44.498;2023-12-14T07:25:12;56.75;;;25.27;;
83115;SDS011;72996;40.206;44.498;2023-12-14T07:27:38;67.55;;;28.08;;
83115;SDS011;72996;40.206;44.498;2023-12-14T07:30:03;69.53;;;28.27;;
83115;SDS011;72996;40.206;44.498;2023-12-14T07:32:29;60.83;;;27.30;;
83115;SDS011;72996;40.206;44.498;2023-12-14T07:34:55;70.65;;;29.30;;
83115;SDS011;72996;40.206;44.498;2023-12-14T07:37:21;62.65;;;29.25;;
83115;SDS011;72996;40.206;44.498;2023-12-14T07:39:46;64.78;;;26.83;;
83115;SDS011;72996;40.206;44.498;2023-12-14T07:42:12;79.13;;;30.50;;
83115;SDS011;72996;40.206;44.498;2023-12-14T07:44:42;69.50;;;28.13;;
83115;SDS011;72996;40.206;44.498;2023-12-14T07:47:08;76.80;;;29.00;;
83115;SDS011;72996;40.206;44.498;2023-12-14T07:49:33;82.78;;;30.63;;
83115;SDS011;72996;40.206;44.498;2023-12-14T07:52:00;79.63;;;30.83;;
83115;SDS011;72996;40.206;44.498;2023-12-14T07:54:25;87.18;;;31.80;;
83115;SDS011;72996;40.206;44.498;2023-12-14T07:56:52;87.20;;;33.10;;
83115;SDS011;72996;40.206;44.498;2023-12-14T07:59:17;86.78;;;33.60;;
83115;SDS011;72996;40.206;44.498;2023-12-14T08:01:43;87.00;;;33.15;;
83115;SDS011;72996;40.206;44.498;2023-12-14T08:04:08;94.78;;;34.33;;
83115;SDS011;72996;40.206;44.498;2023-12-14T08:06:36;93.70;;;35.95;;
83115;SDS011;72996;40.206;44.498;2023-12-14T08:09:04;86.43;;;34.88;;
83115;SDS011;72996;40.206;44.498;2023-12-14T08:11:31;90.18;;;33.63;;
83115;SDS011;72996;40.206;44.498;2023-12-14T08:13:57;93.50;;;35.38;;
83115;SDS011;72996;40.206;44.498;2023-12-14T08:16:23;79.20;;;31.38;;
83115;SDS011;72996;40.206;44.498;2023-12-14T08:18:49;86.22;;;34.17;;
83115;SDS011;72996;40.206;44.498;2023-12-14T08:21:15;89.20;;;33.50;;
83115;SDS011;72996;40.206;44.498;2023-12-14T08:23:41;88.30;;;32.63;;
83115;SDS011;72996;40.206;44.498;2023-12-14T08:26:07;88.78;;;31.95;;
83115;SDS011;72996;40.206;44.498;2023-12-14T08:28:35;89.75;;;33.42;;
83115;SDS011;72996;40.206;44.498;2023-12-14T08:31:01;68.57;;;29.05;;
83115;SDS011;72996;40.206;44.498;2023-12-14T08:33:30;61.08;;;26.05;;
83115;SDS011;72996;40.206;44.498;2023-12-14T08:35:57;67.90;;;29.25;;
83115;SDS011;72996;40.206;44.498;2023-12-14T08:38:23;70.32;;;28.02;;
83115;SDS011;72996;40.206;44.498;2023-12-14T08:40:49;64.97;;;27.35;;
83115;SDS011;72996;40.206;44.498;2023-12-14T08:43:16;57.50;;;24.63;;
83115;SDS011;72996;40.206;44.498;2023-12-14T08:45:42;66.50;;;29.63;;
83115;SDS011;72996;40.206;44.498;2023-12-14T08:48:07;63.72;;;29.40;;
83115;SDS011;72996;40.206;44.498;2023-12-14T08:50:33;66.07;;;28.10;;
83115;SDS011;72996;40.206;44.498;2023-12-14T08:52:59;73.30;;;31.05;;
83115;SDS011;72996;40.206;44.498;2023-12-14T08:55:25;74.60;;;29.65;;
83115;SDS011;72996;40.206;44.498;2023-12-14T08:57:51;84.55;;;34.30;;
83115;SDS011;72996;40.206;44.498;2023-12-14T09:00:17;95.25;;;37.88;;
83115;SDS011;72996;40.206;44.498;2023-12-14T09:02:46;92.70;;;37.65;;
83115;SDS011;72996;40.206;44.498;2023-12-14T09:05:12;97.93;;;37.47;;
83115;SDS011;72996;40.206;44.498;2023-12-14T09:07:39;91.03;;;36.53;;
83115;SDS011;72996;40.206;44.498;2023-12-14T09:10:05;99.93;;;40.08;;
83115;SDS011;72996;40.206;44.498;2023-12-14T09:12:32;104.07;;;39.47;;
83115;SDS011;72996;40.206;44.498;2023-12-14T09:14:59;88.13;;;34.88;;
83115;SDS011;72996;40.206;44.498;2023-12-14T09:17:25;76.00;;;33.10;;
83115;SDS011;72996;40.206;44.498;2023-12-14T09:19:51;78.75;;;31.70;;
83115;SDS011;72996;40.206;44.498;2023-12-14T09:22:17;76.30;;;32.38;;
83115;SDS011;72996;40.206;44.498;2023-12-14T09:24:43;80.18;;;31.02;;
83115;SDS011;72996;40.206;44.498;2023-12-14T09:27:08;77.60;;;34.17;;
83115;SDS011;72996;40.206;44.498;2023-12-14T09:29:34;80.10;;;34.83;;
83115;SDS011;72996;40.206;44.498;2023-12-14T09:32:00;87.38;;;36.33;;
83115;SDS011;72996;40.206;44.498;2023-12-14T09:34:25;98.97;;;38.55;;
83115;SDS011;72996;40.206;44.498;2023-12-14T09:36:51;92.75;;;39.25;;
83115;SDS011;72996;40.206;44.498;2023-12-14T09:39:17;85.63;;;36.65;;
83115;SDS011;72996;40.206;44.498;2023-12-14T09:41:44;79.93;;;36.40;;
83115;SDS011;72996;40.206;44.498;2023-12-14T09:44:11;75.25;;;32.47;;
83115;SDS011;72996;40.206;44.498;2023-12-14T09:46:37;55.75;;;27.05;;
83115;SDS011;72996;40.206;44.498;2023-12-14T09:49:04;53.17;;;25.27;;
83115;SDS011;72996;40.206;44.498;2023-12-14T09:51:30;97.18;;;51.90;;
83115;SDS011;72996;40.206;44.498;2023-12-14T09:53:56;77.63;;;32.22;;
83115;SDS011;72996;40.206;44.498;2023-12-14T09:56:25;41.65;;;19.73;;
83115;SDS011;72996;40.206;44.498;2023-12-14T09:58:51;36.97;;;16.98;;
83115;SDS011;72996;40.206;44.498;2023-12-14T10:01:26;34.65;;;16.08;;
83115;SDS011;72996;40.206;44.498;2023-12-14T10:04:09;34.10;;;14.63;;
83115;SDS011;72996;40.206;44.498;2023-12-14T10:06:35;30.02;;;14.32;;
83115;SDS011;72996;40.206;44.498;2023-12-14T10:09:01;24.35;;;12.13;;
83115;SDS011;72996;40.206;44.498;2023-12-14T10:11:26;25.50;;;11.13;;
83115;SDS011;72996;40.206;44.498;2023-12-14T10:13:52;25.80;;;13.25;;
83115;SDS011;72996;40.206;44.498;2023-12-14T10:16:30;26.13;;;12.50;;
83115;SDS011;72996;40.206;44.498;2023-12-14T10:18:57;21.63;;;10.07;;
83115;SDS011;72996;40.206;44.498;2023-12-14T10:21:25;22.88;;;11.15;;
83115;SDS011;72996;40.206;44.498;2023-12-14T10:23:52;20.05;;;10.10;;
83115;SDS011;72996;40.206;44.498;2023-12-14T10:26:21;25.90;;;11.98;;
83115;SDS011;72996;40.206;44.498;2023-12-14T10:28:48;28.15;;;12.20;;
83115;SDS011;72996;40.206;44.498;2023-12-14T10:31:17;25.88;;;12.23;;
83115;SDS011;72996;40.206;44.498;2023-12-14T10:33:43;31.90;;;13.18;;
83115;SDS011;72996;40.206;44.498;2023-12-14T10:36:09;26.95;;;12.23;;
83115;SDS011;72996;40.206;44.498;2023-12-14T10:38:35;29.13;;;12.57;;
83115;SDS011;72996;40.206;44.498;2023-12-14T10:41:03;29.80;;;14.20;;
83115;SDS011;72996;40.206;44.498;2023-12-14T10:43:30;28.35;;;14.18;;
83115;SDS011;72996;40.206;44.498;2023-12-14T10:45:58;25.70;;;12.82;;
83115;SDS011;72996;40.206;44.498;2023-12-14T10:48:26;25.27;;;13.13;;
83115;SDS011;72996;40.206;44.498;2023-12-14T10:50:54;30.67;;;13.90;;
83115;SDS011;72996;40.206;44.498;2023-12-14T10:53:25;26.13;;;10.98;;
83115;SDS011;72996;40.206;44.498;2023-12-14T10:55:51;24.48;;;11.95;;
83115;SDS011;72996;40.206;44.498;2023-12-14T10:58:19;25.58;;;12.05;;
83115;SDS011;72996;40.206;44.498;2023-12-14T11:00:54;23.25;;;12.75;;
83115;SDS011;72996;40.206;44.498;2023-12-14T11:03:24;29.00;;;13.43;;
83115;SDS011;72996;40.206;44.498;2023-12-14T11:05:51;27.80;;;12.70;;
83115;SDS011;72996;40.206;44.498;2023-12-14T11:08:17;25.20;;;12.85;;
83115;SDS011;72996;40.206;44.498;2023-12-14T11:10:43;24.83;;;12.75;;
83115;SDS011;72996;40.206;44.498;2023-12-14T11:13:20;25.33;;;12.88;;
83115;SDS011;72996;40.206;44.498;2023-12-14T11:15:50;25.58;;;13.07;;
83115;SDS011;72996;40.206;44.498;2023-12-14T11:23:18;31.98;;;15.63;;
83115;SDS011;72996;40.206;44.498;2023-12-14T11:25:55;26.85;;;13.45;;
83115;SDS011;72996;40.206;44.498;2023-12-14T11:28:40;22.20;;;11.85;;
83115;SDS011;72996;40.206;44.498;2023-12-14T11:31:09;18.65;;;9.30;;
83115;SDS011;72996;40.206;44.498;2023-12-14T11:33:37;24.45;;;11.25;;
83115;SDS011;72996;40.206;44.498;2023-12-14T11:36:03;25.80;;;12.95;;
83115;SDS011;72996;40.206;44.498;2023-12-14T11:38:30;25.13;;;12.27;;
83115;SDS011;72996;40.206;44.498;2023-12-14T11:43:23;34.65;;;15.27;;
83115;SDS011;72996;40.206;44.498;2023-12-14T11:45:51;24.75;;;12.02;;
83115;SDS011;72996;40.206;44.498;2023-12-14T11:48:17;20.13;;;10.43;;
83115;SDS011;72996;40.206;44.498;2023-12-14T11:50:45;24.27;;;10.68;;
83115;SDS011;72996;40.206;44.498;2023-12-14T11:53:12;29.75;;;14.52;;
83115;SDS011;72996;40.206;44.498;2023-12-14T11:55:41;22.42;;;12.40;;
83115;SDS011;72996;40.206;44.498;2023-12-14T11:58:08;25.90;;;12.63;;
83115;SDS011;72996;40.206;44.498;2023-12-14T12:00:36;26.50;;;11.82;;
83115;SDS011;72996;40.206;44.498;2023-12-14T12:03:18;25.13;;;13.60;;
83115;SDS011;72996;40.206;44.498;2023-12-14T12:05:47;23.30;;;11.38;;
83115;SDS011;72996;40.206;44.498;2023-12-14T12:08:18;27.55;;;13.07;;
83115;SDS011;72996;40.206;44.498;2023-12-14T12:10:45;26.52;;;12.52;;
83115;SDS011;72996;40.206;44.498;2023-12-14T12:13:13;26.23;;;12.45;;
83115;SDS011;72996;40.206;44.498;2023-12-14T12:15:39;29.15;;;12.60;;
83115;SDS011;72996;40.206;44.498;2023-12-14T12:18:06;26.35;;;11.60;;
83115;SDS011;72996;40.206;44.498;2023-12-14T12:20:33;29.17;;;12.20;;
83115;SDS011;72996;40.206;44.498;2023-12-14T12:23:00;22.52;;;11.63;;
83115;SDS011;72996;40.206;44.498;2023-12-14T12:25:26;25.27;;;12.40;;
83115;SDS011;72996;40.206;44.498;2023-12-14T12:27:53;27.10;;;12.95;;
83115;SDS011;72996;40.206;44.498;2023-12-14T12:30:20;24.50;;;11.82;;
83115;SDS011;72996;40.206;44.498;2023-12-14T12:32:46;23.30;;;11.43;;
83115;SDS011;72996;40.206;44.498;2023-12-14T12:35:12;24.20;;;11.50;;
83115;SDS011;72996;40.206;44.498;2023-12-14T12:37:38;21.60;;;11.20;;
83115;SDS011;72996;40.206;44.498;2023-12-14T12:40:04;24.48;;;10.90;;
83115;SDS011;72996;40.206;44.498;2023-12-14T12:42:32;25.00;;;12.00;;
83115;SDS011;72996;40.206;44.498;2023-12-14T12:44:57;28.50;;;12.93;;
83115;SDS011;72996;40.206;44.498;2023-12-14T12:47:23;24.08;;;12.18;;
83115;SDS011;72996;40.206;44.498;2023-12-14T12:49:48;25.65;;;11.65;;
83115;SDS011;72996;40.206;44.498;2023-12-14T12:52:14;29.13;;;11.75;;
83115;SDS011;72996;40.206;44.498;2023-12-14T12:54:40;23.77;;;11.00;;
83115;SDS011;72996;40.206;44.498;2023-12-14T12:57:06;23.42;;;11.25;;
83115;SDS011;72996;40.206;44.498;2023-12-14T12:59:32;20.67;;;10.05;;
83115;SDS011;72996;40.206;44.498;2023-12-14T13:01:58;24.92;;;11.40;;
83115;SDS011;72996;40.206;44.498;2023-12-14T13:04:24;22.48;;;10.23;;
83115;SDS011;72996;40.206;44.498;2023-12-14T13:06:51;20.23;;;9.82;;
83115;SDS011;72996;40.206;44.498;2023-12-14T13:09:17;20.73;;;9.80;;
83115;SDS011;72996;40.206;44.498;2023-12-14T13:11:47;23.70;;;9.98;;
83115;SDS011;72996;40.206;44.498;2023-12-14T13:14:13;21.70;;;9.73;;
83115;SDS011;72996;40.206;44.498;2023-12-14T13:16:39;22.58;;;10.70;;
83115;SDS011;72996;40.206;44.498;2023-12-14T13:19:06;24.65;;;10.07;;
83115;SDS011;72996;40.206;44.498;2023-12-14T13:21:32;17.30;;;9.02;;
83115;SDS011;72996;40.206;44.498;2023-12-14T13:24:01;24.30;;;9.32;;
83115;SDS011;72996;40.206;44.498;2023-12-14T13:26:28;17.38;;;7.75;;
83115;SDS011;72996;40.206;44.498;2023-12-14T13:28:54;18.23;;;8.57;;
83115;SDS011;72996;40.206;44.498;2023-12-14T13:31:20;20.00;;;9.25;;
83115;SDS011;72996;40.206;44.498;2023-12-14T13:33:46;24.23;;;9.73;;
83115;SDS011;72996;40.206;44.498;2023-12-14T13:36:13;20.33;;;9.02;;
83115;SDS011;72996;40.206;44.498;2023-12-14T13:38:40;20.02;;;8.85;;
83115;SDS011;72996;40.206;44.498;2023-12-14T13:41:06;17.80;;;7.70;;
83115;SDS011;72996;40.206;44.498;2023-12-14T13:43:35;17.90;;;7.90;;
83115;SDS011;72996;40.206;44.498;2023-12-14T13:46:01;19.65;;;9.10;;
83115;SDS011;72996;40.206;44.498;2023-12-14T13:48:27;19.08;;;9.05;;
83115;SDS011;72996;40.206;44.498;2023-12-14T13:50:53;17.50;;;7.47;;
83115;SDS011;72996;40.206;44.498;2023-12-14T13:53:20;16.33;;;7.45;;
83115;SDS011;72996;40.206;44.498;2023-12-14T13:55:46;17.52;;;7.60;;
83115;SDS011;72996;40.206;44.498;2023-12-14T13:58:14;15.75;;;7.90;;
83115;SDS011;72996;40.206;44.498;2023-12-14T14:00:40;24.77;;;11.77;;
83115;SDS011;72996;40.206;44.498;2023-12-14T14:03:05;29.63;;;12.00;;
83115;SDS011;72996;40.206;44.498;2023-12-14T14:05:31;40.70;;;17.20;;
83115;SDS011;72996;40.206;44.498;2023-12-14T14:07:58;40.38;;;19.42;;
83115;SDS011;72996;40.206;44.498;2023-12-14T14:10:23;27.17;;;12.90;;
83115;SDS011;72996;40.206;44.498;2023-12-14T14:12:49;35.88;;;16.25;;
83115;SDS011;72996;40.206;44.498;2023-12-14T14:15:16;30.98;;;13.05;;